CheckWX is a tool to help pilots better visualize weather data.  It is not intended as a substitute for an official pre-flight weather briefing.

21:00:34 UTC

KGRR METAR
Gerald R Ford International Airport
Grand Rapids, Michigan, USA
Current

1 hour ago

KGRR 171953Z 10010KT 10SM FEW020 FEW250 21/15 A3019 RMK AO2 SLP222 T02060150
Observed
Sep-17 @ 19:53 UTC
Wind
  • 100° at 10 KTS
Visibility
10 SM
Flight Rules
VFR
Cloud Levels
  • Few at 2,000' AGL
  • Few at 25,000' AGL
Temperature
21°C / 70°F
Dewpoint
15°C / 59°F
Humidity
69%
Altimeter
30.19" Hg
Pressure
1022.32 hPa
Previous

2 hours ago

KGRR 171853Z 10009KT 10SM FEW018 FEW250 21/15 A3021 RMK AO2 SLP229 T02060150
Observed
Sep-17 @ 18:53 UTC
Wind
  • 100° at 9 KTS
Visibility
10 SM
Flight Rules
VFR
Cloud Levels
  • Few at 1,800' AGL
  • Few at 25,000' AGL
Temperature
21°C / 70°F
Dewpoint
15°C / 59°F
Humidity
69%
Altimeter
30.21" Hg
Pressure
1023.02 hPa
Previous

3 hours ago

KGRR 171753Z 10006KT 10SM FEW014 BKN250 19/15 A3022 RMK AO2 SLP232 T01940150 10194 20144 56007
Observed
Sep-17 @ 17:53 UTC
Wind
  • 100° at 6 KTS
Visibility
10 SM
Flight Rules
VFR
Cloud Levels
  • Few at 1,400' AGL
  • Broken at 25,000' AGL
Temperature
19°C / 66°F
Dewpoint
15°C / 59°F
Humidity
78%
Altimeter
30.22" Hg
Pressure
1023.42 hPa